Terminal Aerodrome Forecast
Issued by NWS

Home | Current Version | Previous Version | Text Only | Print | Product List | Glossary On
Versions: 1 2 3 4 5 6 7 8 9 10 11 12 13 14 15
000
FTUS45 KRIW 210533
TAFPNA
TAF
KPNA 210533Z 2106/2206 30006KT P6SM VCSH SCT025 BKN040
     FM211600 14009KT P6SM VCSH SCT020 BKN035
     FM212000 17014G24KT P6SM VCSH SCT025 BKN040
     FM220100 16009KT P6SM VCSH SCT020 BKN030
     FM220300 14007KT 6SM -RA SCT015 BKN025
      AMD LTD TO CLD VIS AND WIND=

USA.gov is the U.S. government's official web portal to all federal, state and local government web resources and services.